createdAt,value
2022-11-28T00:01:36.508Z,4.80
2022-11-28T00:04:05.601Z,4.50
2022-11-28T00:06:40.398Z,3.60
2022-11-28T00:09:08.029Z,4.00
2022-11-28T00:11:34.831Z,4.00
2022-11-28T00:14:01.837Z,4.30
2022-11-28T00:16:28.803Z,3.90
2022-11-28T00:18:55.637Z,3.70
2022-11-28T00:21:23.574Z,4.10
2022-11-28T00:23:51.559Z,4.00
2022-11-28T00:26:34.946Z,4.20
2022-11-28T00:29:03.952Z,4.20
2022-11-28T00:31:35.013Z,4.10
2022-11-28T00:34:02.602Z,4.10
2022-11-28T00:36:29.926Z,4.60
2022-11-28T00:38:56.626Z,4.10
2022-11-28T00:41:28.790Z,4.00
2022-11-28T00:43:55.746Z,4.20
2022-11-28T00:46:24.267Z,4.90
2022-11-28T00:48:51.166Z,4.80
2022-11-28T00:51:25.003Z,4.30
2022-11-28T00:53:54.482Z,4.80
2022-11-28T00:56:25.763Z,4.30
2022-11-28T00:58:52.595Z,4.50
2022-11-28T01:01:29.977Z,4.90
2022-11-28T01:04:01.253Z,4.40
2022-11-28T01:06:33.858Z,4.70
2022-11-28T01:09:05.586Z,4.50
2022-11-28T01:11:33.150Z,4.50
2022-11-28T01:14:01.901Z,4.00
2022-11-28T01:16:29.076Z,4.50
2022-11-28T01:18:56.640Z,4.90
2022-11-28T01:21:24.410Z,4.50
2022-11-28T01:23:51.241Z,4.80
2022-11-28T01:26:25.309Z,4.30
2022-11-28T01:28:52.760Z,4.30
2022-11-28T01:31:24.045Z,4.20
2022-11-28T01:33:51.909Z,4.60
2022-11-28T01:36:20.946Z,3.90
2022-11-28T01:38:48.563Z,3.80
2022-11-28T01:41:19.953Z,4.20
2022-11-28T01:46:55.823Z,3.70
2022-11-28T01:49:31.400Z,4.50
2022-11-28T01:52:05.252Z,4.20
2022-11-28T01:54:33.740Z,4.40
2022-11-28T01:57:08.044Z,4.90
2022-11-28T01:59:43.050Z,4.70
2022-11-28T02:02:26.506Z,4.50
2022-11-28T02:04:53.330Z,4.70
2022-11-28T02:07:20.138Z,4.80
2022-11-28T02:09:46.859Z,5.10
2022-11-28T02:12:51.792Z,5.00
2022-11-28T02:15:55.310Z,4.90
2022-11-28T02:18:50.357Z,5.20
2022-11-28T02:22:00.792Z,4.90
2022-11-28T02:24:53.206Z,4.80
2022-11-28T02:27:41.708Z,5.20
2022-11-28T02:30:48.071Z,4.90
2022-11-28T02:33:33.440Z,5.30
2022-11-28T02:36:15.354Z,5.30
2022-11-28T02:39:06.965Z,6.00
2022-11-28T02:44:35.649Z,5.90
2022-11-28T02:47:05.238Z,5.30
2022-11-28T02:50:03.000Z,5.30
2022-11-28T02:52:37.412Z,5.30
2022-11-28T02:55:05.598Z,5.70
2022-11-28T02:57:42.350Z,5.40
2022-11-28T03:00:33.369Z,5.60
2022-11-28T03:03:22.086Z,5.10
2022-11-28T03:06:10.500Z,5.20
2022-11-28T03:09:06.029Z,5.60
2022-11-28T03:11:51.277Z,5.70
2022-11-28T03:15:00.280Z,4.80
2022-11-28T03:18:07.572Z,5.70
2022-11-28T03:20:46.954Z,5.30
2022-11-28T03:23:47.373Z,5.30
2022-11-28T03:26:25.919Z,6.00
2022-11-28T03:29:41.749Z,5.60
2022-11-28T03:32:36.634Z,5.80
2022-11-28T03:35:11.544Z,5.30
2022-11-28T03:37:55.554Z,6.10
2022-11-28T03:40:28.574Z,5.90
2022-11-28T03:43:04.283Z,5.20
2022-11-28T03:45:47.161Z,5.90
2022-11-28T03:48:26.984Z,5.90
2022-11-28T03:51:08.251Z,6.20
2022-11-28T03:54:13.985Z,5.50
2022-11-28T03:56:56.607Z,5.90
2022-11-28T03:59:51.900Z,6.40
2022-11-28T04:02:39.286Z,6.10
2022-11-28T04:05:30.060Z,6.80
2022-11-28T04:08:19.250Z,7.30
2022-11-28T04:11:10.725Z,6.70
2022-11-28T04:13:49.623Z,6.20
2022-11-28T04:16:29.988Z,6.60
2022-11-28T04:19:13.135Z,6.50
2022-11-28T04:21:53.950Z,6.70
2022-11-28T04:24:40.210Z,7.70
2022-11-28T04:27:13.074Z,6.60
2022-11-28T04:29:45.841Z,6.00
2022-11-28T04:32:15.057Z,5.80
2022-11-28T04:34:45.126Z,6.20
2022-11-28T04:37:14.470Z,6.10
2022-11-28T04:39:46.445Z,5.60
2022-11-28T04:42:18.705Z,6.50
2022-11-28T04:44:57.851Z,5.90
2022-11-28T04:47:25.252Z,6.00
2022-11-28T04:49:53.566Z,5.70
2022-11-28T04:53:05.287Z,7.30
2022-11-28T04:55:45.889Z,6.60
2022-11-28T04:58:20.226Z,6.50
2022-11-28T05:00:49.424Z,6.60
2022-11-28T05:03:16.587Z,6.60
2022-11-28T05:05:51.277Z,6.80
2022-11-28T05:08:19.514Z,6.60
2022-11-28T05:10:46.966Z,6.30
2022-11-28T05:13:14.340Z,7.10
2022-11-28T05:15:41.010Z,5.70
2022-11-28T05:18:08.704Z,7.30
2022-11-28T05:20:37.700Z,6.60
2022-11-28T05:23:04.551Z,6.60
2022-11-28T05:25:31.485Z,6.30
2022-11-28T05:27:58.150Z,7.40
2022-11-28T05:30:24.819Z,6.50
2022-11-28T05:32:51.902Z,6.70
2022-11-28T05:35:18.628Z,6.30
2022-11-28T05:37:45.327Z,5.90
2022-11-28T05:40:12.201Z,6.60
2022-11-28T05:42:38.877Z,7.20
2022-11-28T05:45:06.545Z,6.50
2022-11-28T05:47:33.348Z,6.50
2022-11-28T05:50:01.323Z,6.60
2022-11-28T05:52:31.763Z,6.50
2022-11-28T05:54:59.597Z,6.00
2022-11-28T05:57:29.189Z,6.70
2022-11-28T05:59:57.151Z,6.70
2022-11-28T06:02:24.629Z,6.40
2022-11-28T06:04:51.376Z,6.30
2022-11-28T06:07:19.120Z,7.20
2022-11-28T06:09:46.018Z,6.00
2022-11-28T06:12:12.846Z,7.60
2022-11-28T06:14:39.710Z,6.40
2022-11-28T06:17:06.539Z,6.60
2022-11-28T06:19:33.265Z,7.00
2022-11-28T06:21:59.930Z,7.00
2022-11-28T06:24:26.845Z,7.00
2022-11-28T06:26:54.565Z,6.90
2022-11-28T06:29:21.709Z,8.00
2022-11-28T06:31:48.420Z,6.80
2022-11-28T06:34:15.150Z,6.80
2022-11-28T06:36:44.232Z,6.60
2022-11-28T06:39:16.012Z,6.30
2022-11-28T06:41:43.366Z,6.40
2022-11-28T06:44:13.972Z,7.50
2022-11-28T06:46:41.523Z,6.40
2022-11-28T06:49:12.388Z,6.80
2022-11-28T06:51:41.284Z,6.30
2022-11-28T06:54:08.826Z,6.40
2022-11-28T06:56:35.547Z,6.10
2022-11-28T06:59:02.423Z,6.30
2022-11-28T07:01:31.688Z,7.30
2022-11-28T07:03:58.444Z,6.40
2022-11-28T07:06:26.575Z,6.20
2022-11-28T07:08:56.085Z,6.80
2022-11-28T07:11:29.038Z,6.00
2022-11-28T07:13:57.574Z,5.30
2022-11-28T07:16:31.329Z,5.60
2022-11-28T07:18:59.160Z,5.30
2022-11-28T07:21:27.520Z,5.90
2022-11-28T07:23:54.389Z,5.10
2022-11-28T07:26:22.041Z,5.70
2022-11-28T07:28:50.569Z,4.80
2022-11-28T07:31:21.709Z,5.30
2022-11-28T07:33:50.162Z,4.90
2022-11-28T07:36:21.639Z,4.90
2022-11-28T07:38:51.189Z,5.00
2022-11-28T07:41:22.507Z,5.30
2022-11-28T07:43:56.271Z,5.40
2022-11-28T07:46:23.871Z,6.00
2022-11-28T07:48:51.573Z,5.40
2022-11-28T07:51:25.580Z,5.30
2022-11-28T07:53:52.496Z,5.80
2022-11-28T07:56:24.156Z,5.50
2022-11-28T07:58:51.035Z,4.60
2022-11-28T08:01:24.451Z,4.70
2022-11-28T08:03:52.552Z,4.50
2022-11-28T08:06:22.697Z,4.70
2022-11-28T08:08:52.966Z,5.10
2022-11-28T08:11:22.698Z,5.60
2022-11-28T08:13:51.815Z,4.50
2022-11-28T08:16:23.938Z,4.90
2022-11-28T08:18:51.592Z,4.00
2022-11-28T08:21:22.826Z,5.00
2022-11-28T08:23:51.327Z,4.10
2022-11-28T08:26:23.887Z,4.20
2022-11-28T08:28:53.670Z,4.50
2022-11-28T08:31:24.714Z,5.20
2022-11-28T08:33:54.255Z,5.30
2022-11-28T08:36:21.985Z,4.90
2022-11-28T08:39:03.471Z,5.50
2022-11-28T08:41:36.360Z,6.60
2022-11-28T08:44:03.316Z,5.10
2022-11-28T08:46:30.081Z,7.00
2022-11-28T08:48:56.958Z,5.60
2022-11-28T08:51:23.957Z,5.90
2022-11-28T08:53:57.864Z,6.10
2022-11-28T08:56:27.445Z,5.70
2022-11-28T08:58:54.835Z,5.60
2022-11-28T09:01:26.162Z,5.70
2022-11-28T09:06:22.718Z,4.80
2022-11-28T09:08:50.827Z,5.20
2022-11-28T09:11:21.149Z,5.10
2022-11-28T09:13:48.393Z,5.80
2022-11-28T09:16:16.036Z,5.30
2022-11-28T09:18:43.204Z,5.20
2022-11-28T09:21:14.487Z,4.60
2022-11-28T09:23:43.637Z,5.10
2022-11-28T09:26:17.334Z,4.60
2022-11-28T09:28:44.561Z,4.70
2022-11-28T09:31:13.239Z,4.90
2022-11-28T09:33:40.315Z,4.80
2022-11-28T09:36:10.845Z,4.60
2022-11-28T09:38:37.964Z,4.70
2022-11-28T09:41:39.135Z,4.50
2022-11-28T09:44:33.363Z,4.60
2022-11-28T09:47:05.743Z,5.00
2022-11-28T09:49:54.877Z,4.70
2022-11-28T09:52:33.782Z,5.90
2022-11-28T09:55:13.727Z,4.80
2022-11-28T09:57:46.702Z,5.10
2022-11-28T10:00:21.985Z,5.70
2022-11-28T10:03:52.176Z,4.80
2022-11-28T10:06:58.713Z,4.10
2022-11-28T10:09:42.484Z,4.50
2022-11-28T10:12:44.682Z,4.10
2022-11-28T10:15:32.828Z,4.00
2022-11-28T10:18:27.911Z,4.00
2022-11-28T10:21:01.755Z,3.90
2022-11-28T10:23:40.477Z,4.50
2022-11-28T10:26:37.950Z,4.60
2022-11-28T10:29:24.664Z,4.00
2022-11-28T10:31:58.548Z,4.30
2022-11-28T10:35:01.071Z,3.70
2022-11-28T10:37:32.075Z,4.60
2022-11-28T10:40:36.591Z,4.10
2022-11-28T10:43:24.596Z,3.50
2022-11-28T10:46:46.959Z,3.60
2022-11-28T10:49:57.599Z,3.30
2022-11-28T10:53:11.014Z,3.00
2022-11-28T10:56:22.676Z,3.10
2022-11-28T11:01:58.608Z,3.50
2022-11-28T11:04:27.486Z,3.90
2022-11-28T11:07:22.724Z,3.60
2022-11-28T11:09:52.403Z,3.60
2022-11-28T11:12:26.582Z,3.20
2022-11-28T11:14:53.443Z,2.80
2022-11-28T11:17:36.299Z,2.60
2022-11-28T11:20:35.725Z,3.00
2022-11-28T11:23:21.019Z,3.20
2022-11-28T11:25:55.822Z,2.90
2022-11-28T11:28:39.311Z,3.70
2022-11-28T11:31:22.847Z,2.90
2022-11-28T11:34:03.479Z,3.00
2022-11-28T11:36:33.751Z,3.00
2022-11-28T11:39:24.944Z,3.20
2022-11-28T11:42:11.463Z,2.50
2022-11-28T11:44:38.479Z,2.80
2022-11-28T11:47:08.783Z,2.80
2022-11-28T11:49:40.897Z,3.90
2022-11-28T11:52:22.091Z,2.90
2022-11-28T11:54:56.560Z,4.00
2022-11-28T11:57:38.362Z,2.60
2022-11-28T12:00:17.230Z,3.20
2022-11-28T12:03:01.367Z,2.70
2022-11-28T12:06:13.212Z,2.60
2022-11-28T12:08:51.035Z,2.30
2022-11-28T12:11:45.586Z,3.40
2022-11-28T12:14:47.369Z,2.40
2022-11-28T12:17:47.870Z,2.40
2022-11-28T12:20:51.721Z,2.50
2022-11-28T12:23:43.800Z,2.60
2022-11-28T12:26:22.365Z,2.00
2022-11-28T12:29:27.065Z,3.30
2022-11-28T12:32:05.604Z,2.90
2022-11-28T12:35:02.605Z,2.10
2022-11-28T12:38:11.180Z,2.10
2022-11-28T12:41:19.901Z,3.10
2022-11-28T12:44:04.502Z,2.10
2022-11-28T12:47:00.076Z,3.00
2022-11-28T12:49:47.025Z,1.90
2022-11-28T12:52:23.205Z,2.30
2022-11-28T12:55:32.692Z,2.50
2022-11-28T12:58:08.212Z,2.10
2022-11-28T13:00:54.575Z,2.80
2022-11-28T13:04:25.336Z,2.20
2022-11-28T13:07:13.061Z,2.30
2022-11-28T13:10:13.309Z,2.60
2022-11-28T13:12:58.192Z,2.90
2022-11-28T13:15:43.298Z,1.90
2022-11-28T13:18:36.468Z,2.20
2022-11-28T13:21:27.281Z,3.10
2022-11-28T13:24:09.974Z,2.90
2022-11-28T13:27:13.769Z,3.60
2022-11-28T13:30:03.304Z,2.30
2022-11-28T13:32:59.372Z,2.40
2022-11-28T13:35:28.069Z,2.20
2022-11-28T13:38:36.896Z,3.20
2022-11-28T13:42:13.998Z,2.80
2022-11-28T13:44:43.971Z,3.00
2022-11-28T13:47:34.261Z,2.90
2022-11-28T13:50:29.001Z,3.20
2022-11-28T13:53:10.420Z,2.60
2022-11-28T13:55:47.021Z,3.00
2022-11-28T13:58:22.621Z,2.60
2022-11-28T14:01:07.461Z,3.20
2022-11-28T14:04:00.618Z,2.70
2022-11-28T14:06:31.198Z,2.40
2022-11-28T14:09:34.067Z,2.50
2022-11-28T14:12:23.084Z,2.80
2022-11-28T14:15:15.239Z,2.90
2022-11-28T14:18:03.250Z,2.30
2022-11-28T14:20:51.068Z,2.60
2022-11-28T14:23:47.252Z,2.70
2022-11-28T14:26:31.446Z,2.90
2022-11-28T14:28:59.109Z,3.20
2022-11-28T14:31:37.976Z,2.40
2022-11-28T14:34:57.161Z,2.10
2022-11-28T14:37:34.191Z,2.60
2022-11-28T14:40:01.428Z,2.30
2022-11-28T14:42:58.733Z,3.40
2022-11-28T14:45:43.023Z,2.20
2022-11-28T14:48:30.197Z,3.00
2022-11-28T14:51:01.894Z,2.10
2022-11-28T14:53:50.029Z,3.00
2022-11-28T14:56:25.396Z,2.50
2022-11-28T14:58:57.972Z,2.10
2022-11-28T15:02:01.557Z,2.40
2022-11-28T15:04:42.897Z,2.10
2022-11-28T15:10:31.626Z,2.30
2022-11-28T15:13:36.359Z,2.40
2022-11-28T15:16:10.237Z,2.40
2022-11-28T15:18:41.231Z,2.60
2022-11-28T15:21:14.537Z,2.40
2022-11-28T15:23:41.645Z,2.30
2022-11-28T15:26:30.530Z,3.00
2022-11-28T15:29:24.213Z,3.50
2022-11-28T15:31:54.200Z,3.30
2022-11-28T15:34:30.827Z,2.70
2022-11-28T15:37:20.883Z,3.30
2022-11-28T15:39:49.421Z,3.40
2022-11-28T15:42:29.241Z,4.30
2022-11-28T15:45:00.383Z,3.40
2022-11-28T15:47:28.162Z,2.80
2022-11-28T15:50:17.215Z,3.20
2022-11-28T15:53:00.278Z,3.30
2022-11-28T15:55:33.366Z,3.40
2022-11-28T15:58:29.969Z,3.10
2022-11-28T16:01:08.517Z,2.90
2022-11-28T16:04:00.957Z,3.40
2022-11-28T16:06:36.300Z,2.80
2022-11-28T16:09:25.693Z,2.60
2022-11-28T16:11:54.025Z,3.40
2022-11-28T16:14:26.567Z,4.00
2022-11-28T16:16:54.954Z,3.90
2022-11-28T16:19:37.825Z,3.20
2022-11-28T16:22:09.142Z,3.40
2022-11-28T16:27:35.220Z,3.10
2022-11-28T16:30:26.383Z,2.60
2022-11-28T16:32:55.486Z,2.80
2022-11-28T16:35:39.884Z,3.00
2022-11-28T16:38:23.430Z,2.90
2022-11-28T16:40:51.445Z,3.20
2022-11-28T16:43:34.488Z,3.40
2022-11-28T16:46:08.043Z,2.90
2022-11-28T16:48:38.158Z,3.90
2022-11-28T16:51:25.315Z,3.60
2022-11-28T16:53:54.975Z,3.40
2022-11-28T16:56:28.973Z,2.90
2022-11-28T16:59:19.295Z,3.40
2022-11-28T17:01:52.897Z,3.70
2022-11-28T17:04:27.558Z,3.50
2022-11-28T17:06:58.695Z,3.40
2022-11-28T17:09:25.448Z,4.00
2022-11-28T17:12:03.257Z,3.30
2022-11-28T17:14:30.425Z,3.20
2022-11-28T17:16:57.110Z,4.10
2022-11-28T17:19:24.610Z,3.80
2022-11-28T17:21:54.401Z,4.10
2022-11-28T17:24:24.675Z,4.50
2022-11-28T17:26:53.212Z,3.50
2022-11-28T17:29:21.175Z,4.00
2022-11-28T17:31:49.550Z,4.00
2022-11-28T17:34:32.837Z,4.00
2022-11-28T17:37:02.105Z,3.80
2022-11-28T17:39:29.082Z,4.30
2022-11-28T17:41:57.390Z,3.40
2022-11-28T17:44:28.787Z,4.00
2022-11-28T17:49:24.216Z,4.40
2022-11-28T17:51:52.732Z,3.90
2022-11-28T17:54:22.447Z,3.80
2022-11-28T17:56:51.050Z,4.80
2022-11-28T17:59:21.379Z,4.30
2022-11-28T18:01:48.431Z,3.70
2022-11-28T18:04:15.585Z,4.00
2022-11-28T18:06:44.373Z,3.80
2022-11-28T18:09:13.394Z,4.10
2022-11-28T18:11:41.969Z,4.60
2022-11-28T18:14:09.381Z,4.30
2022-11-28T18:16:36.451Z,3.90
2022-11-28T18:19:03.738Z,4.40
2022-11-28T18:21:31.551Z,4.10
2022-11-28T18:23:58.406Z,3.50
2022-11-28T18:26:26.116Z,4.20
2022-11-28T18:28:54.406Z,4.30
2022-11-28T18:31:24.823Z,4.30
2022-11-28T18:33:57.391Z,3.60
2022-11-28T18:36:29.666Z,4.10
2022-11-28T18:39:03.267Z,4.00
2022-11-28T18:41:30.861Z,4.30
2022-11-28T18:44:04.078Z,4.20
2022-11-28T18:46:32.877Z,3.90
2022-11-28T18:49:00.053Z,4.50
2022-11-28T18:51:32.780Z,4.50
2022-11-28T18:54:04.350Z,3.80
2022-11-28T18:56:31.153Z,4.20
2022-11-28T18:58:58.242Z,4.70
2022-11-28T19:01:31.597Z,4.20
2022-11-28T19:03:59.298Z,4.00
2022-11-28T19:06:26.964Z,4.00
2022-11-28T19:08:58.699Z,4.20
2022-11-28T19:11:27.764Z,3.60
2022-11-28T19:13:55.592Z,3.90
2022-11-28T19:16:28.617Z,3.40
2022-11-28T19:18:56.453Z,3.50
2022-11-28T19:21:27.557Z,3.20
2022-11-28T19:23:56.417Z,3.20
2022-11-28T19:26:26.160Z,5.50
2022-11-28T19:28:53.975Z,4.90
2022-11-28T19:31:26.086Z,5.40
2022-11-28T19:34:16.549Z,5.60
2022-11-28T19:36:47.464Z,5.00
2022-11-28T19:39:21.468Z,5.10
2022-11-28T19:41:51.463Z,5.60
2022-11-28T19:44:21.251Z,4.80
2022-11-28T19:46:47.982Z,5.00
2022-11-28T19:49:20.894Z,4.30
2022-11-28T19:51:48.709Z,4.10
2022-11-28T19:54:18.912Z,5.50
2022-11-28T19:56:46.736Z,5.00
2022-11-28T19:59:14.406Z,4.50
2022-11-28T20:01:41.583Z,4.50
2022-11-28T20:04:09.434Z,5.00
2022-11-28T20:06:36.741Z,4.30
2022-11-28T20:09:08.105Z,4.70
2022-11-28T20:14:05.833Z,4.60
2022-11-28T20:16:35.463Z,5.20
2022-11-28T20:19:03.634Z,4.20
2022-11-28T20:21:31.192Z,4.40
2022-11-28T20:24:04.653Z,4.00
2022-11-28T20:26:37.597Z,4.30
2022-11-28T20:29:06.647Z,4.60
2022-11-28T20:31:37.442Z,3.80
2022-11-28T20:34:05.786Z,4.20
2022-11-28T20:36:33.523Z,3.70
2022-11-28T20:39:00.502Z,4.50
2022-11-28T20:41:28.539Z,4.10
2022-11-28T20:43:56.066Z,3.80
2022-11-28T20:46:30.964Z,3.80
2022-11-28T20:49:04.790Z,3.50
2022-11-28T20:51:33.455Z,4.10
2022-11-28T20:54:01.330Z,3.70
2022-11-28T20:56:41.834Z,3.50
2022-11-28T20:59:18.555Z,4.30
2022-11-28T21:01:45.839Z,4.90
2022-11-28T21:04:15.864Z,4.30
2022-11-28T21:06:43.929Z,5.00
2022-11-28T21:09:12.064Z,4.60
2022-11-28T21:14:27.865Z,4.80
2022-11-28T21:16:55.383Z,5.00
2022-11-28T21:19:22.195Z,4.50
2022-11-28T21:21:48.916Z,4.70
2022-11-28T21:24:15.638Z,4.80
2022-11-28T21:26:48.025Z,4.50
2022-11-28T21:29:18.244Z,4.50
2022-11-28T21:31:45.865Z,5.00
2022-11-28T21:34:15.720Z,5.10
2022-11-28T21:36:42.609Z,5.60
2022-11-28T21:39:13.796Z,5.70
2022-11-28T21:41:40.409Z,5.90
2022-11-28T21:44:07.601Z,5.80
2022-11-28T21:46:34.243Z,6.20
2022-11-28T21:49:01.297Z,6.10
2022-11-28T21:51:28.262Z,6.40
2022-11-28T21:53:56.801Z,6.60
2022-11-28T21:56:23.897Z,5.60
2022-11-28T21:58:50.857Z,6.10
2022-11-28T22:01:17.767Z,6.50
2022-11-28T22:03:44.496Z,5.50
2022-11-28T22:06:22.292Z,5.30
2022-11-28T22:08:50.671Z,6.40
2022-11-28T22:11:19.544Z,5.10
2022-11-28T22:13:47.449Z,5.80
2022-11-28T22:16:28.772Z,6.20
2022-11-28T22:18:59.178Z,7.00
2022-11-28T22:21:51.010Z,6.40
2022-11-28T22:24:13.272Z,6.60
2022-11-28T22:26:39.904Z,9.70
2022-11-28T22:29:06.618Z,9.80
2022-11-28T22:31:33.280Z,10.40
2022-11-28T22:33:59.967Z,10.20
2022-11-28T22:36:26.943Z,10.90
2022-11-28T22:38:55.479Z,10.20
2022-11-28T22:41:28.502Z,10.50
2022-11-28T22:43:59.797Z,9.50
2022-11-28T22:46:27.856Z,9.90
2022-11-28T22:48:54.689Z,8.70
2022-11-28T22:51:25.874Z,8.40
2022-11-28T22:53:54.658Z,9.70
2022-11-28T22:56:22.273Z,7.60
2022-11-28T22:58:49.278Z,8.70
2022-11-28T23:01:23.640Z,8.00
2022-11-28T23:03:50.940Z,7.20
2022-11-28T23:06:24.460Z,7.70
2022-11-28T23:08:52.474Z,7.10
2022-11-28T23:11:23.103Z,6.60
2022-11-28T23:13:51.127Z,6.80
2022-11-28T23:16:22.296Z,6.50
2022-11-28T23:18:52.311Z,6.80
2022-11-28T23:21:21.504Z,6.60
2022-11-28T23:23:48.787Z,6.60
2022-11-28T23:26:19.109Z,5.30
2022-11-28T23:28:46.116Z,6.50
2022-11-28T23:31:16.491Z,5.70
2022-11-28T23:33:43.381Z,5.90
2022-11-28T23:36:24.481Z,5.90
2022-11-28T23:38:55.141Z,4.80
2022-11-28T23:41:22.274Z,4.00
2022-11-28T23:43:49.154Z,3.50
2022-11-28T23:46:19.347Z,3.00
2022-11-28T23:48:46.861Z,3.20
2022-11-28T23:51:15.352Z,2.60
2022-11-28T23:53:43.090Z,2.80
2022-11-28T23:56:23.472Z,3.20
2022-11-28T23:58:51.873Z,3.10
